Time;durP1;ratioP1;P1;durP2;ratioP2;P2;SDS_P1;SDS_P2;PMS_P1;PMS_P2;Temp;Humidity;BMP_temperature;BMP_pressure;BME280_temperature;BME280_humidity;BME280_pressure;Samples;Min_cycle;Max_cycle;Signal;HPM_P1;HPM_P2
2023/02/28 08:07:40;;;;;;;;;2.00;2.00;;;;;;;;5085269;27;14228;-67
2023/02/28 08:15:56;;;;;;;;;5.50;5.50;;;;;;;;5103816;27;14263;-68
2023/02/28 08:18:22;;;;;;;;;3.00;3.00;;;;;;;;5103404;28;13408;-68
2023/02/28 08:20:47;;;;;;;;;1.00;1.00;;;;;;;;5107091;28;8820;-68
2023/02/28 08:23:12;;;;;;;;;6.00;5.00;;;;;;;;5102158;28;13463;-67
2023/02/28 08:25:38;;;;;;;;;5.00;4.67;;;;;;;;5103441;28;13786;-68
2023/02/28 08:28:03;;;;;;;;;7.00;5.00;;;;;;;;5103252;28;13608;-68
2023/02/28 08:30:28;;;;;;;;;6.25;5.50;;;;;;;;5103146;28;13419;-68
2023/02/28 08:32:55;;;;;;;;;4.33;4.33;;;;;;;;5103101;28;13542;-67
2023/02/28 08:35:20;;;;;;;;;4.20;4.20;;;;;;;;5103122;28;13451;-67
2023/02/28 08:37:47;;;;;;;;;11.25;10.25;;;;;;;;5103216;28;13443;-68
2023/02/28 08:40:17;;;;;;;;;6.00;5.00;;;;;;;;5102752;28;14234;-68
2023/02/28 08:42:43;;;;;;;;;7.20;6.00;;;;;;;;5101437;28;13400;-69
2023/02/28 08:45:08;;;;;;;;;7.33;5.00;;;;;;;;5104646;28;13580;-68
2023/02/28 08:47:33;;;;;;;;;3.75;2.00;;;;;;;;5108125;28;8803;-68
2023/02/28 08:49:58;;;;;;;;;10.50;5.00;;;;;;;;5103893;28;13394;-68
2023/02/28 08:52:24;;;;;;;;;5.00;3.50;;;;;;;;5102916;28;13484;-67
2023/02/28 08:54:49;;;;;;;;;8.33;6.00;;;;;;;;5102771;28;14181;-67
2023/02/28 08:57:14;;;;;;;;;3.67;3.67;;;;;;;;5103721;28;13376;-69
2023/02/28 08:59:39;;;;;;;;;5.33;5.00;;;;;;;;5104214;28;13435;-68
2023/02/28 09:02:05;;;;;;;;;5.00;5.00;;;;;;;;5103245;28;13400;-67
2023/02/28 09:04:33;;;;;;;;;5.33;4.00;;;;;;;;5101422;28;13428;-67
2023/02/28 09:06:58;;;;;;;;;2.00;2.00;;;;;;;;5106174;28;8820;-67
2023/02/28 09:09:23;;;;;;;;;7.33;4.00;;;;;;;;5102300;28;14257;-68
2023/02/28 09:11:48;;;;;;;;;4.00;4.00;;;;;;;;5102558;28;13397;-68
2023/02/28 09:14:14;;;;;;;;;5.00;5.00;;;;;;;;5103757;28;13445;-70
2023/02/28 09:16:39;;;;;;;;;4.50;4.50;;;;;;;;5103751;28;13392;-68
2023/02/28 09:19:04;;;;;;;;;4.00;4.00;;;;;;;;5103926;28;13390;-68
2023/02/28 09:21:29;;;;;;;;;6.00;5.00;;;;;;;;5103905;28;13407;-68
2023/02/28 09:23:55;;;;;;;;;8.00;6.00;;;;;;;;5103360;28;13428;-71
2023/02/28 09:26:22;;;;;;;;;6.00;4.67;;;;;;;;5095474;28;14191;-67
2023/02/28 09:28:47;;;;;;;;;4.60;4.60;;;;;;;;5089632;28;13453;-68
2023/02/28 09:31:14;;;;;;;;;5.00;5.00;;;;;;;;5090025;28;13423;-68
2023/02/28 09:33:39;;;;;;;;;5.00;5.00;;;;;;;;5089964;28;13371;-66
2023/02/28 09:36:04;;;;;;;;;5.50;5.00;;;;;;;;5089900;28;13528;-66
2023/02/28 09:38:30;;;;;;;;;6.00;6.00;;;;;;;;5089790;28;13403;-66
2023/02/28 09:40:56;;;;;;;;;5.00;5.00;;;;;;;;5089715;28;13540;-66
2023/02/28 09:43:23;;;;;;;;;8.00;6.00;;;;;;;;5088171;28;13546;-65
2023/02/28 09:45:52;;;;;;;;;3.25;2.00;;;;;;;;5092739;28;8900;-66
2023/02/28 09:48:20;;;;;;;;;5.00;5.00;;;;;;;;5085983;28;14100;-65
2023/02/28 09:50:55;;;;;;;;;9.40;7.00;;;;;;;;5088271;28;13398;-64
2023/02/28 09:53:35;;;;;;;;;3.00;3.00;;;;;;;;5089386;28;8795;-65
2023/02/28 09:56:25;;;;;;;;;7.00;3.00;;;;;;;;5086273;28;13582;-64
2023/02/28 09:58:54;;;;;;;;;7.00;5.00;;;;;;;;5087409;28;13612;-65
2023/02/28 10:01:38;;;;;;;;;6.00;5.00;;;;;;;;5087937;28;14208;-65
2023/02/28 10:04:08;;;;;;;;;6.00;6.00;;;;;;;;5085883;28;13422;-67
2023/02/28 10:06:38;;;;;;;;;6.00;5.00;;;;;;;;5089580;28;13420;-66
2023/02/28 10:09:09;;;;;;;;;6.80;6.80;;;;;;;;5089214;28;14168;-68
2023/02/28 10:11:35;;;;;;;;;6.80;6.80;;;;;;;;5088143;28;14177;-69
2023/02/28 10:14:05;;;;;;;;;6.00;5.75;;;;;;;;5088051;28;13456;-67
2023/02/28 10:16:41;;;;;;;;;8.75;5.75;;;;;;;;5087754;28;14349;-66
2023/02/28 10:19:11;;;;;;;;;6.25;5.75;;;;;;;;5085358;28;13446;-66
2023/02/28 10:21:39;;;;;;;;;8.20;6.00;;;;;;;;5088860;28;13531;-67
2023/02/28 10:24:13;;;;;;;;;4.00;4.00;;;;;;;;5088731;28;13445;-66
2023/02/28 10:26:41;;;;;;;;;4.75;4.75;;;;;;;;5087240;28;13534;-66
2023/02/28 10:29:08;;;;;;;;;5.25;5.25;;;;;;;;5088772;28;14139;-67
2023/02/28 10:31:33;;;;;;;;;6.80;6.80;;;;;;;;5089257;28;13415;-67
2023/02/28 10:34:02;;;;;;;;;4.25;4.25;;;;;;;;5087338;28;13778;-66
2023/02/28 10:36:28;;;;;;;;;8.00;5.80;;;;;;;;5087056;28;13363;-67
2023/02/28 10:38:54;;;;;;;;;4.50;4.00;;;;;;;;5087381;28;13518;-65
2023/02/28 10:41:27;;;;;;;;;7.00;5.00;;;;;;;;5087393;28;14296;-64
2023/02/28 10:43:52;;;;;;;;;4.33;4.33;;;;;;;;5086874;28;13446;-66
2023/02/28 10:46:25;;;;;;;;;7.00;5.00;;;;;;;;5085858;28;13483;-66
2023/02/28 10:48:50;;;;;;;;;;;;;;;;;;5093087;28;8856;-66
2023/02/28 10:51:17;;;;;;;;;2.60;2.00;;;;;;;;5090501;28;7531;-66
2023/02/28 10:53:43;;;;;;;;;5.25;5.25;;;;;;;;5086507;28;13468;-66
2023/02/28 10:56:08;;;;;;;;;7.00;6.00;;;;;;;;5086788;28;13519;-66
2023/02/28 10:58:52;;;;;;;;;7.00;6.00;;;;;;;;5086804;28;13467;-66
2023/02/28 11:01:34;;;;;;;;;6.40;6.40;;;;;;;;5084289;28;13466;-67
2023/02/28 11:03:59;;;;;;;;;6.00;6.00;;;;;;;;5086096;28;13464;-66
2023/02/28 11:06:26;;;;;;;;;5.75;5.75;;;;;;;;5097484;28;13378;-66
2023/02/28 11:08:53;;;;;;;;;6.25;6.25;;;;;;;;5097365;28;13516;-69
2023/02/28 11:11:19;;;;;;;;;7.40;6.80;;;;;;;;5092563;28;13373;-67
2023/02/28 11:13:46;;;;;;;;;8.75;7.75;;;;;;;;5087850;28;13405;-68
2023/02/28 11:16:13;;;;;;;;;11.75;10.00;;;;;;;;5098134;28;13432;-68
2023/02/28 11:18:43;;;;;;;;;10.00;10.00;;;;;;;;5107919;28;13487;-67
2023/02/28 11:21:11;;;;;;;;;9.00;9.00;;;;;;;;5100964;28;13468;-67
2023/02/28 11:23:36;;;;;;;;;;;;;;;;;;5108048;28;9631;-67
2023/02/28 11:26:01;;;;;;;;;;;;;;;;;;5113427;28;7963;-67
2023/02/28 11:28:26;;;;;;;;;;;;;;;;;;5101985;28;8387;-67
2023/02/28 11:30:51;;;;;;;;;;;;;;;;;;5102362;28;7536;-67
2023/02/28 11:33:16;;;;;;;;;;;;;;;;;;5102089;28;8812;-66
2023/02/28 11:35:42;;;;;;;;;;;;;;;;;;5103357;28;7520;-66
2023/02/28 11:38:07;;;;;;;;;;;;;;;;;;5100925;28;7533;-66
2023/02/28 11:40:33;;;;;;;;;;;;;;;;;;5100865;28;7547;-67
2023/02/28 11:42:58;;;;;;;;;;;;;;;;;;5108132;28;8829;-68
2023/02/28 11:45:42;;;;;;;;;8.60;6.80;;;;;;;;5111301;28;7612;-67
2023/02/28 11:48:13;;;;;;;;;12.20;12.20;;;;;;;;5107288;28;13360;-66
2023/02/28 11:50:42;;;;;;;;;12.00;12.00;;;;;;;;5106726;28;13542;-67
2023/02/28 11:53:13;;;;;;;;;12.00;12.00;;;;;;;;5107359;28;13544;-66
2023/02/28 11:55:38;;;;;;;;;10.80;10.80;;;;;;;;5107509;28;13661;-67
2023/02/28 11:58:16;;;;;;;;;11.00;11.00;;;;;;;;5105841;28;14329;-68
2023/02/28 12:01:00;;;;;;;;;9.25;7.75;;;;;;;;5096927;28;8879;-67
2023/02/28 12:03:34;;;;;;;;;15.75;15.75;;;;;;;;5092317;28;13437;-67
2023/02/28 12:06:19;;;;;;;;;11.75;10.75;;;;;;;;5098081;28;13479;-66
2023/02/28 12:08:48;;;;;;;;;9.00;7.00;;;;;;;;5096668;28;11506;-66
2023/02/28 12:11:20;;;;;;;;;10.25;8.75;;;;;;;;5099722;28;11440;-67
2023/02/28 12:13:53;;;;;;;;;13.00;12.00;;;;;;;;5093552;28;13495;-66
2023/02/28 12:16:25;;;;;;;;;15.60;13.20;;;;;;;;5095669;28;13602;-66
2023/02/28 12:18:53;;;;;;;;;10.75;9.00;;;;;;;;5097255;28;13486;-67
2023/02/28 12:21:30;;;;;;;;;10.00;9.25;;;;;;;;5097810;28;14199;-66
2023/02/28 12:24:15;;;;;;;;;12.00;9.00;;;;;;;;5100619;28;11563;-66
2023/02/28 12:26:48;;;;;;;;;16.80;16.60;;;;;;;;5097159;28;13489;-68
2023/02/28 12:29:13;;;;;;;;;;;;;;;;;;5103493;28;8796;-67
2023/02/28 12:31:38;;;;;;;;;;;;;;;;;;5100697;28;7626;-68
2023/02/28 12:34:04;;;;;;;;;;;;;;;;;;5104026;28;8872;-67
2023/02/28 12:36:29;;;;;;;;;;;;;;;;;;5102686;28;8857;-67
2023/02/28 12:39:03;;;;;;;;;9.00;9.00;;;;;;;;5101436;28;7520;-67
2023/02/28 12:41:28;;;;;;;;;;;;;;;;;;5100467;28;8904;-67
2023/02/28 12:44:00;;;;;;;;;10.00;8.20;;;;;;;;5100080;28;8801;-67
2023/02/28 12:46:46;;;;;;;;;10.80;10.80;;;;;;;;5093214;28;14007;-67
2023/02/28 12:49:22;;;;;;;;;10.00;8.50;;;;;;;;5097036;28;9635;-67
2023/02/28 12:51:49;;;;;;;;;16.00;13.40;;;;;;;;5093835;28;13451;-67
2023/02/28 12:54:33;;;;;;;;;16.20;14.80;;;;;;;;5094266;28;14124;-67
2023/02/28 12:57:23;;;;;;;;;14.40;11.80;;;;;;;;5096646;28;13537;-67
2023/02/28 12:59:57;;;;;;;;;10.25;10.25;;;;;;;;5096393;28;8938;-67
2023/02/28 13:02:40;;;;;;;;;13.20;12.40;;;;;;;;5096154;28;13629;-67
2023/02/28 13:05:06;;;;;;;;;12.00;7.00;;;;;;;;5100604;28;8950;-67
2023/02/28 13:07:31;;;;;;;;;18.00;13.33;;;;;;;;5100450;28;14236;-67
2023/02/28 13:09:58;;;;;;;;;8.50;8.50;;;;;;;;5100280;28;13608;-67
2023/02/28 13:12:24;;;;;;;;;10.50;10.50;;;;;;;;5099562;28;14157;-67
2023/02/28 13:14:50;;;;;;;;;10.25;10.00;;;;;;;;5097883;28;13537;-67
2023/02/28 13:17:20;;;;;;;;;12.20;11.00;;;;;;;;5106839;28;13465;-70
2023/02/28 13:19:54;;;;;;;;;6.00;5.25;;;;;;;;5114181;28;8799;-69
2023/02/28 13:22:37;;;;;;;;;11.00;10.00;;;;;;;;5110065;28;14152;-69
2023/02/28 13:25:03;;;;;;;;;6.00;6.00;;;;;;;;5113809;28;8800;-69
2023/02/28 13:27:39;;;;;;;;;8.75;8.00;;;;;;;;5110048;28;13387;-69
2023/02/28 13:30:23;;;;;;;;;10.50;10.50;;;;;;;;5104190;28;13843;-67
2023/02/28 13:33:08;;;;;;;;;14.20;13.00;;;;;;;;5093980;28;13602;-67
2023/02/28 13:35:42;;;;;;;;;11.60;8.40;;;;;;;;5087677;28;13526;-68
2023/02/28 13:38:16;;;;;;;;;11.00;11.00;;;;;;;;5088044;28;13551;-68
2023/02/28 13:40:42;;;;;;;;;8.40;8.40;;;;;;;;5085888;28;13466;-66
2023/02/28 13:43:08;;;;;;;;;7.50;6.50;;;;;;;;5092040;28;8847;-66
2023/02/28 13:45:38;;;;;;;;;8.00;8.00;;;;;;;;5088078;28;13447;-66
2023/02/28 13:48:04;;;;;;;;;10.25;9.50;;;;;;;;5087870;28;13485;-67
2023/02/28 13:50:34;;;;;;;;;8.75;8.00;;;;;;;;5087405;28;13503;-67
2023/02/28 13:53:02;;;;;;;;;8.25;8.25;;;;;;;;5087658;28;13452;-66
2023/02/28 13:55:34;;;;;;;;;10.00;9.00;;;;;;;;5086142;28;13466;-67
2023/02/28 13:57:59;;;;;;;;;;;;;;;;;;5094885;28;8816;-67
2023/02/28 14:00:45;;;;;;;;;4.75;4.75;;;;;;;;5102792;28;9514;-67
2023/02/28 14:03:26;;;;;;;;;9.75;9.75;;;;;;;;5098360;28;13489;-67
2023/02/28 14:06:10;;;;;;;;;11.40;9.00;;;;;;;;5098805;28;13492;-67
2023/02/28 14:08:36;;;;;;;;;14.00;10.00;;;;;;;;5099174;28;13507;-67
2023/02/28 14:11:06;;;;;;;;;13.75;10.00;;;;;;;;5096558;28;13543;-67
2023/02/28 14:13:46;;;;;;;;;14.00;12.80;;;;;;;;5099181;28;14150;-67
2023/02/28 14:16:21;;;;;;;;;10.20;9.40;;;;;;;;5098714;28;13599;-66
2023/02/28 14:19:09;;;;;;;;;9.00;9.00;;;;;;;;5097179;28;13369;-67
2023/02/28 14:21:35;;;;;;;;;12.20;10.20;;;;;;;;5088634;28;13316;-66
2023/02/28 14:24:19;;;;;;;;;8.50;8.50;;;;;;;;5088625;28;13497;-66
2023/02/28 14:27:02;;;;;;;;;7.25;7.25;;;;;;;;5087047;28;13448;-66
2023/02/28 14:29:27;;;;;;;;;;;;;;;;;;5094808;28;12374;-66
2023/02/28 14:31:52;;;;;;;;;;;;;;;;;;5095171;28;9649;-68
2023/02/28 14:34:36;;;;;;;;;4.40;4.20;;;;;;;;5090543;28;8866;-67
2023/02/28 14:37:03;;;;;;;;;9.00;9.00;;;;;;;;5087401;28;14106;-68
2023/02/28 22:44:30;;;;;;;;;12.25;12.25;;;;;;;;5185278;27;13293;-68
2023/02/28 22:46:55;;;;;;;;;16.50;15.00;;;;;;;;5165656;27;13374;-71
2023/02/28 22:49:21;;;;;;;;;14.33;14.00;;;;;;;;5186629;27;13375;-69
2023/02/28 22:51:46;;;;;;;;;16.00;12.25;;;;;;;;5166217;27;13495;-69
2023/02/28 22:54:11;;;;;;;;;15.75;14.50;;;;;;;;5184653;27;13818;-69
2023/02/28 22:56:36;;;;;;;;;11.00;9.00;;;;;;;;5184849;27;13494;-68
2023/02/28 22:59:02;;;;;;;;;15.00;13.00;;;;;;;;5184826;27;14163;-69
2023/02/28 23:01:29;;;;;;;;;18.00;13.50;;;;;;;;5184954;27;13391;-69
2023/02/28 23:03:54;;;;;;;;;12.00;10.50;;;;;;;;5185574;27;14252;-69
2023/02/28 23:06:21;;;;;;;;;15.50;13.00;;;;;;;;5186441;27;13355;-69
2023/02/28 23:08:47;;;;;;;;;18.00;16.50;;;;;;;;5187014;27;13371;-69
2023/02/28 23:11:20;;;;;;;;;15.75;14.25;;;;;;;;5186791;27;13430;-68
2023/02/28 23:13:57;;;;;;;;;16.25;13.50;;;;;;;;5186995;27;13361;-69
2023/02/28 23:16:22;;;;;;;;;13.50;13.50;;;;;;;;5187068;27;13378;-69
2023/02/28 23:18:48;;;;;;;;;16.80;14.20;;;;;;;;5186840;27;13391;-69
2023/02/28 23:21:13;;;;;;;;;13.67;13.67;;;;;;;;5186814;27;13345;-69
2023/02/28 23:23:38;;;;;;;;;16.50;12.25;;;;;;;;5186657;27;13458;-69
2023/02/28 23:26:06;;;;;;;;;15.25;15.00;;;;;;;;5186547;27;13328;-70
2023/02/28 23:28:32;;;;;;;;;15.80;15.00;;;;;;;;5186546;27;13371;-69
2023/02/28 23:31:03;;;;;;;;;19.00;17.00;;;;;;;;5168310;27;13361;-69
2023/02/28 23:33:28;;;;;;;;;19.50;16.50;;;;;;;;5186620;27;13385;-70
2023/02/28 23:35:53;;;;;;;;;16.50;15.50;;;;;;;;5186420;27;13375;-70
2023/02/28 23:38:19;;;;;;;;;16.00;16.00;;;;;;;;5186296;27;13388;-70
2023/02/28 23:40:45;;;;;;;;;19.25;19.25;;;;;;;;5186364;27;13361;-70
2023/02/28 23:43:10;;;;;;;;;26.67;17.33;;;;;;;;5186162;27;14090;-70
2023/02/28 23:45:36;;;;;;;;;23.33;19.00;;;;;;;;5186394;27;14049;-70
2023/02/28 23:48:02;;;;;;;;;24.40;18.40;;;;;;;;5167429;27;14724;-70
2023/02/28 23:50:27;;;;;;;;;21.00;18.60;;;;;;;;5186102;27;13501;-70
2023/02/28 23:52:52;;;;;;;;;19.33;16.33;;;;;;;;5186110;27;13383;-70
2023/02/28 23:55:19;;;;;;;;;20.00;20.00;;;;;;;;5175359;27;13431;-70
2023/02/28 23:57:45;;;;;;;;;16.40;16.20;;;;;;;;5172012;27;13386;-70
